createdAt,value
2018-01-31T01:52:21.901Z,58.53
2018-01-31T01:54:50.278Z,62.70
2018-01-31T01:57:17.966Z,62.57
2018-01-31T02:02:30.802Z,60.60
2018-01-31T02:04:58.522Z,62.33
2018-01-31T02:07:26.244Z,61.17
2018-01-31T02:09:54.921Z,62.63
2018-01-31T02:12:22.646Z,59.30
2018-01-31T02:14:50.356Z,61.20
2018-01-31T02:17:18.766Z,61.63
2018-01-31T02:19:45.542Z,68.27
2018-01-31T02:22:12.234Z,69.40
2018-01-31T02:24:38.922Z,71.13
2018-01-31T02:27:05.653Z,77.10
2018-01-31T02:29:33.290Z,73.07
2018-01-31T02:32:01.980Z,65.73
2018-01-31T02:34:29.668Z,64.93
2018-01-31T02:36:57.303Z,63.17
2018-01-31T02:39:28.917Z,64.73
2018-01-31T02:41:56.666Z,55.17
2018-01-31T02:44:24.284Z,54.87
2018-01-31T02:49:42.464Z,55.37
2018-01-31T02:52:09.238Z,53.53
2018-01-31T02:54:35.976Z,51.17
2018-01-31T02:57:04.400Z,52.53
2018-01-31T02:59:32.150Z,52.33
2018-01-31T03:02:00.798Z,47.20
2018-01-31T03:04:28.476Z,47.10
2018-01-31T03:06:56.194Z,48.27
2018-01-31T03:09:23.914Z,47.73
2018-01-31T03:11:51.588Z,43.57
2018-01-31T03:14:18.350Z,43.83
2018-01-31T03:17:03.342Z,42.53
2018-01-31T03:19:31.098Z,44.90
2018-01-31T03:21:58.816Z,42.53
2018-01-31T03:24:29.542Z,40.70
2018-01-31T03:26:57.248Z,40.33
2018-01-31T03:29:23.950Z,46.90
2018-01-31T03:31:55.518Z,50.73
2018-01-31T03:34:23.234Z,51.23
2018-01-31T03:36:50.974Z,55.47
2018-01-31T03:39:18.622Z,55.63
2018-01-31T03:41:46.309Z,55.00
2018-01-31T03:44:13.054Z,53.23
2018-01-31T03:46:45.524Z,53.40
2018-01-31T03:49:16.997Z,50.70
2018-01-31T03:51:48.516Z,50.63
2018-01-31T03:54:16.216Z,50.97
2018-01-31T03:56:42.968Z,49.20
2018-01-31T03:59:10.582Z,47.07
2018-01-31T04:01:38.278Z,48.90
2018-01-31T04:04:05.046Z,48.07
2018-01-31T04:06:33.702Z,47.57
2018-01-31T04:09:01.366Z,42.07
2018-01-31T04:11:30.096Z,37.77
2018-01-31T04:13:57.812Z,38.27
2018-01-31T04:16:25.477Z,34.70
2018-01-31T04:18:53.174Z,35.13
2018-01-31T04:21:20.146Z,35.97
2018-01-31T04:23:46.856Z,32.80
2018-01-31T04:26:15.578Z,33.90
2018-01-31T04:28:42.280Z,33.27
2018-01-31T04:31:09.952Z,34.57
2018-01-31T04:33:37.662Z,34.03
2018-01-31T04:36:06.309Z,32.73
2018-01-31T04:38:33.958Z,29.83
2018-01-31T04:41:01.672Z,29.30
2018-01-31T04:43:33.394Z,33.23
2018-01-31T04:46:00.130Z,32.73
2018-01-31T04:48:27.893Z,32.37
2018-01-31T04:50:55.572Z,35.63
2018-01-31T04:56:08.505Z,32.30
2018-01-31T04:58:36.226Z,30.37
2018-01-31T05:01:02.934Z,31.63
2018-01-31T05:03:30.646Z,34.93
2018-01-31T05:05:58.421Z,33.00
2018-01-31T05:08:26.135Z,36.53
2018-01-31T05:10:53.797Z,38.87
2018-01-31T05:13:24.568Z,35.97
2018-01-31T05:15:57.138Z,37.43
2018-01-31T05:18:23.854Z,43.17
2018-01-31T05:23:36.172Z,43.80
2018-01-31T05:26:04.995Z,44.70
2018-01-31T05:28:33.689Z,43.77
2018-01-31T05:31:02.374Z,42.33
2018-01-31T05:33:29.100Z,43.93
2018-01-31T05:35:56.784Z,50.33
2018-01-31T05:38:24.446Z,51.30
2018-01-31T05:40:53.181Z,59.47
2018-01-31T05:46:06.173Z,61.20
2018-01-31T05:48:33.890Z,58.07
2018-01-31T05:51:01.606Z,56.63
2018-01-31T05:53:30.410Z,54.87
2018-01-31T05:58:44.222Z,55.23
2018-01-31T06:01:11.942Z,55.83
2018-01-31T06:03:39.622Z,48.33
2018-01-31T06:06:07.312Z,40.67
2018-01-31T06:08:35.044Z,34.47
2018-01-31T06:11:02.700Z,30.57
2018-01-31T06:13:30.433Z,28.17
2018-01-31T06:15:57.110Z,26.97
2018-01-31T06:21:09.974Z,25.10
2018-01-31T06:23:36.707Z,26.47
2018-01-31T06:26:03.428Z,26.63
2018-01-31T06:28:33.378Z,28.83
2018-01-31T06:31:01.084Z,27.37
2018-01-31T06:33:27.918Z,29.10
2018-01-31T06:35:54.633Z,28.63
2018-01-31T06:38:22.332Z,29.47
2018-01-31T06:41:03.384Z,31.73
2018-01-31T06:46:16.536Z,32.07
2018-01-31T06:48:44.285Z,31.87
2018-01-31T06:51:14.967Z,29.53
2018-01-31T06:53:41.690Z,31.00
2018-01-31T06:56:08.448Z,29.80
2018-01-31T06:58:37.948Z,29.13
2018-01-31T07:01:05.591Z,32.50
2018-01-31T07:03:33.292Z,34.30
2018-01-31T07:06:01.030Z,44.50
2018-01-31T07:08:28.728Z,45.73
2018-01-31T07:10:57.456Z,41.23
2018-01-31T07:13:25.150Z,42.83
2018-01-31T07:15:52.836Z,36.93
2018-01-31T07:18:21.576Z,35.30
2018-01-31T07:20:49.286Z,33.67
2018-01-31T07:23:16.943Z,31.73
2018-01-31T07:25:44.630Z,30.40
2018-01-31T07:41:03.425Z,29.23
2018-01-31T07:43:30.139Z,28.53
2018-01-31T07:45:57.186Z,28.50
2018-01-31T07:48:24.997Z,28.13
2018-01-31T07:50:52.704Z,28.40
2018-01-31T07:53:20.353Z,29.17
2018-01-31T07:55:48.119Z,30.47
2018-01-31T07:58:15.849Z,30.23
2018-01-31T08:00:43.576Z,31.53
2018-01-31T08:03:12.300Z,28.30
2018-01-31T08:05:40.995Z,29.73
2018-01-31T08:08:12.554Z,30.63
2018-01-31T08:10:44.155Z,28.73
2018-01-31T08:13:15.755Z,29.17
2018-01-31T08:15:42.471Z,28.77
2018-01-31T08:18:10.135Z,31.17
2018-01-31T08:20:37.846Z,33.03
2018-01-31T08:23:05.424Z,35.47
2018-01-31T08:25:33.138Z,36.63
2018-01-31T08:28:00.847Z,33.83
2018-01-31T08:30:28.553Z,32.10
2018-01-31T08:32:56.240Z,33.50
2018-01-31T08:45:03.952Z,29.53
2018-01-31T08:47:31.613Z,29.37
2018-01-31T08:49:59.290Z,31.93
2018-01-31T08:52:27.485Z,27.63
2018-01-31T08:54:55.194Z,20.57
2018-01-31T08:57:21.962Z,21.27
2018-01-31T08:59:48.729Z,21.33
2018-01-31T09:02:16.465Z,20.93
2018-01-31T09:04:43.163Z,20.73
2018-01-31T09:07:10.923Z,20.23
2018-01-31T09:09:38.657Z,20.33
2018-01-31T09:12:10.377Z,21.03
2018-01-31T09:14:39.131Z,23.13
2018-01-31T09:17:06.861Z,22.30
2018-01-31T09:19:33.539Z,22.33
2018-01-31T09:22:01.981Z,22.23
2018-01-31T09:24:30.512Z,23.40
2018-01-31T09:26:58.223Z,24.07
2018-01-31T09:29:25.937Z,23.70
2018-01-31T09:31:54.590Z,25.50
2018-01-31T09:34:22.265Z,23.53
2018-01-31T09:37:02.383Z,23.30
2018-01-31T09:39:34.903Z,20.77
2018-01-31T09:42:02.599Z,17.60
2018-01-31T09:44:31.251Z,19.17
2018-01-31T09:46:58.913Z,18.67
2018-01-31T09:49:26.643Z,18.43
2018-01-31T09:51:53.333Z,18.43
2018-01-31T09:54:20.037Z,15.30
2018-01-31T09:56:47.771Z,15.37
2018-01-31T10:02:01.271Z,16.87
2018-01-31T10:04:29.005Z,14.73
2018-01-31T10:06:56.743Z,15.23
2018-01-31T10:09:24.443Z,14.70
2018-01-31T10:11:55.123Z,14.23
2018-01-31T10:14:24.897Z,14.03
2018-01-31T10:16:52.620Z,13.33
2018-01-31T10:19:19.309Z,12.37
2018-01-31T10:21:47.100Z,10.17
2018-01-31T10:24:14.832Z,10.60
2018-01-31T10:26:41.536Z,9.37
2018-01-31T10:29:08.293Z,10.77
2018-01-31T10:41:15.083Z,9.60
2018-01-31T10:43:42.807Z,9.40
2018-01-31T10:46:10.507Z,8.50
2018-01-31T10:48:38.165Z,10.67
2018-01-31T10:51:04.869Z,9.70
2018-01-31T10:53:32.544Z,9.70
2018-01-31T10:58:34.028Z,10.50
2018-01-31T11:01:00.731Z,10.40
2018-01-31T11:03:28.485Z,10.10
2018-01-31T11:05:57.621Z,10.43
2018-01-31T11:08:25.325Z,11.20
2018-01-31T11:10:53.007Z,10.27
2018-01-31T11:13:20.865Z,10.37
2018-01-31T11:15:47.625Z,10.03
2018-01-31T11:18:14.367Z,10.23
2018-01-31T11:20:42.023Z,10.07
2018-01-31T11:23:08.767Z,9.70
2018-01-31T11:25:37.481Z,9.77
2018-01-31T11:28:05.213Z,9.57
2018-01-31T11:30:31.953Z,8.20
2018-01-31T11:32:59.915Z,6.50
2018-01-31T11:35:31.573Z,8.33
2018-01-31T11:37:58.279Z,7.60
2018-01-31T11:40:26.019Z,7.30
2018-01-31T11:42:57.541Z,5.67
2018-01-31T11:45:24.223Z,6.33
2018-01-31T11:47:53.232Z,6.10
2018-01-31T11:50:21.565Z,4.57
2018-01-31T11:52:49.273Z,5.07
2018-01-31T11:55:17.011Z,4.20
2018-01-31T11:57:43.687Z,5.67
2018-01-31T12:00:13.395Z,6.63
2018-01-31T12:02:42.086Z,4.10
2018-01-31T12:05:09.825Z,4.47
2018-01-31T12:07:37.501Z,5.60
2018-01-31T12:10:04.269Z,4.70
2018-01-31T12:12:36.783Z,5.47
2018-01-31T12:15:10.328Z,5.33
2018-01-31T12:17:37.057Z,5.47
2018-01-31T12:20:09.556Z,5.20
2018-01-31T12:22:46.955Z,6.27
2018-01-31T12:25:19.497Z,6.27
2018-01-31T12:27:51.956Z,4.20
2018-01-31T12:30:25.439Z,3.63
2018-01-31T12:33:07.813Z,2.60
2018-01-31T12:35:41.283Z,3.33
2018-01-31T12:38:15.129Z,3.57
2018-01-31T12:40:41.621Z,3.77
2018-01-31T12:43:09.077Z,3.00
2018-01-31T12:45:35.551Z,3.90
2018-01-31T12:48:02.253Z,3.60
2018-01-31T12:50:37.023Z,4.10
2018-01-31T12:53:09.609Z,3.87
2018-01-31T12:55:42.137Z,4.23
2018-01-31T12:58:14.823Z,4.47
2018-01-31T13:00:56.612Z,4.17
2018-01-31T13:03:31.149Z,4.50
2018-01-31T13:06:05.835Z,5.17
2018-01-31T13:08:39.274Z,6.03
2018-01-31T13:11:13.729Z,4.83
2018-01-31T13:13:58.115Z,6.27
2018-01-31T13:16:30.593Z,5.83
2018-01-31T13:19:03.265Z,6.20
2018-01-31T13:21:36.779Z,5.10
2018-01-31T13:24:09.256Z,4.83
2018-01-31T13:26:41.739Z,7.00
2018-01-31T13:29:15.127Z,5.83
2018-01-31T13:31:59.666Z,6.10
2018-01-31T13:34:34.315Z,6.50
2018-01-31T13:46:46.939Z,6.20
2018-01-31T13:49:23.847Z,6.80
2018-01-31T13:51:57.269Z,7.37
2018-01-31T13:54:30.728Z,6.63
2018-01-31T13:57:04.220Z,7.30
2018-01-31T13:59:52.589Z,5.90
2018-01-31T14:02:27.043Z,6.03
2018-01-31T14:05:00.542Z,6.20
2018-01-31T14:07:34.113Z,6.30
2018-01-31T14:10:06.662Z,7.37
2018-01-31T14:12:40.151Z,7.83
2018-01-31T14:15:13.606Z,8.40
2018-01-31T14:17:46.167Z,12.33
2018-01-31T14:20:18.677Z,13.40
2018-01-31T14:22:53.361Z,13.87
2018-01-31T14:25:28.575Z,13.60
2018-01-31T14:28:02.102Z,11.30
2018-01-31T14:30:34.575Z,14.20
2018-01-31T14:33:07.091Z,15.10
2018-01-31T14:35:39.637Z,16.20
2018-01-31T14:50:56.171Z,15.37
2018-01-31T14:53:22.693Z,17.33
2018-01-31T14:55:50.140Z,19.27
2018-01-31T14:58:18.728Z,20.13
2018-01-31T15:00:46.177Z,17.37
2018-01-31T15:03:12.620Z,18.10
2018-01-31T15:05:41.168Z,18.60
2018-01-31T15:08:07.703Z,20.27
2018-01-31T15:10:35.137Z,19.13
2018-01-31T15:13:02.618Z,17.80
2018-01-31T15:15:35.007Z,18.27
2018-01-31T15:18:01.490Z,18.03
2018-01-31T15:20:27.978Z,17.17
2018-01-31T15:25:39.882Z,16.60
2018-01-31T15:28:25.019Z,19.07
2018-01-31T15:30:53.562Z,17.80
2018-01-31T15:33:20.040Z,17.80
2018-01-31T15:35:47.507Z,20.60
2018-01-31T15:38:16.023Z,22.07
2018-01-31T15:40:51.234Z,22.20
2018-01-31T15:43:18.755Z,25.83
2018-01-31T15:45:46.185Z,29.40
2018-01-31T15:48:14.652Z,31.30
2018-01-31T15:50:42.138Z,33.37
2018-01-31T15:53:09.562Z,33.77
2018-01-31T15:55:37.026Z,32.20
2018-01-31T15:58:04.548Z,31.37
2018-01-31T16:00:31.954Z,26.77
2018-01-31T16:03:00.498Z,27.00
2018-01-31T16:05:27.253Z,26.80
2018-01-31T16:07:54.742Z,25.07
2018-01-31T16:10:22.347Z,25.93
2018-01-31T16:12:48.841Z,28.13
2018-01-31T16:15:20.402Z,32.67
2018-01-31T16:17:48.110Z,31.17
2018-01-31T16:20:29.709Z,30.80
2018-01-31T16:22:56.438Z,28.10
2018-01-31T16:25:30.593Z,24.20
2018-01-31T16:28:04.057Z,22.17
2018-01-31T16:30:39.705Z,22.40
2018-01-31T16:33:14.178Z,23.87
2018-01-31T16:35:47.644Z,24.37
2018-01-31T16:38:14.332Z,23.23
2018-01-31T16:40:42.992Z,20.93
2018-01-31T16:43:09.759Z,18.30
2018-01-31T16:45:37.526Z,20.20
2018-01-31T16:48:05.259Z,20.63
2018-01-31T16:50:33.012Z,20.33
2018-01-31T16:53:02.738Z,19.50
2018-01-31T16:55:31.425Z,20.43
2018-01-31T17:07:39.155Z,25.83
2018-01-31T17:10:06.878Z,30.73
2018-01-31T17:12:34.546Z,30.90
2018-01-31T17:15:02.257Z,28.47
2018-01-31T17:17:29.983Z,27.70
2018-01-31T17:19:56.666Z,28.57
2018-01-31T17:22:23.394Z,33.40
2018-01-31T17:24:50.138Z,31.73
2018-01-31T17:27:21.882Z,35.00
2018-01-31T17:29:48.654Z,32.33
2018-01-31T17:32:16.579Z,28.97
2018-01-31T17:34:44.258Z,23.53
2018-01-31T17:37:10.982Z,20.17
2018-01-31T17:39:39.687Z,19.87
2018-01-31T17:42:06.456Z,20.90
2018-01-31T17:44:34.762Z,18.57
2018-01-31T17:47:02.477Z,19.77
2018-01-31T17:49:30.154Z,20.03
2018-01-31T17:51:56.902Z,20.03
2018-01-31T17:54:23.636Z,17.87
2018-01-31T17:56:51.308Z,18.90
2018-01-31T17:59:18.050Z,19.63
2018-01-31T18:01:50.563Z,20.90
2018-01-31T18:04:17.303Z,23.23
2018-01-31T18:06:45.086Z,24.07
2018-01-31T18:09:12.806Z,25.13
2018-01-31T18:11:40.462Z,22.73
2018-01-31T18:14:18.924Z,22.47
2018-01-31T18:16:47.602Z,21.60
2018-01-31T18:19:14.314Z,22.50
2018-01-31T18:21:42.010Z,21.87
2018-01-31T18:24:10.747Z,24.30
2018-01-31T18:26:39.464Z,24.20
2018-01-31T18:29:07.172Z,26.47
2018-01-31T18:31:34.932Z,26.50
2018-01-31T18:34:02.615Z,26.60
2018-01-31T18:36:30.732Z,24.50
2018-01-31T18:38:57.430Z,26.13
2018-01-31T18:41:25.166Z,27.87
2018-01-31T18:43:51.898Z,27.60
2018-01-31T18:46:19.572Z,27.03
2018-01-31T18:48:47.233Z,33.13
2018-01-31T18:51:14.958Z,32.50
2018-01-31T18:53:42.672Z,35.53
2018-01-31T18:56:10.331Z,35.60
2018-01-31T18:58:39.112Z,34.80
2018-01-31T19:01:10.772Z,36.00
2018-01-31T19:03:38.480Z,33.07
2018-01-31T19:06:06.266Z,32.17
2018-01-31T19:08:32.966Z,31.17
2018-01-31T19:11:00.726Z,30.93
2018-01-31T19:13:28.432Z,32.70
2018-01-31T19:15:55.142Z,31.67
2018-01-31T19:18:22.836Z,25.30
2018-01-31T19:20:49.605Z,23.07
2018-01-31T19:23:17.342Z,22.20
2018-01-31T19:25:49.638Z,22.37
2018-01-31T19:28:16.716Z,22.23
2018-01-31T19:30:44.414Z,21.20
2018-01-31T19:33:12.148Z,22.03
2018-01-31T19:35:41.182Z,22.97
2018-01-31T19:38:09.095Z,24.17
2018-01-31T19:40:35.848Z,24.53
2018-01-31T19:43:02.542Z,23.40
2018-01-31T19:45:42.486Z,23.67
2018-01-31T19:48:11.065Z,21.43
2018-01-31T19:50:38.770Z,20.50
2018-01-31T19:53:05.533Z,19.03
2018-01-31T19:55:37.108Z,18.23
2018-01-31T19:58:11.618Z,20.50
2018-01-31T20:00:38.321Z,18.97
2018-01-31T20:03:05.993Z,19.70
2018-01-31T20:05:32.720Z,20.07
2018-01-31T20:08:01.528Z,19.70
2018-01-31T20:10:29.186Z,20.67
2018-01-31T20:12:57.768Z,22.17
2018-01-31T20:18:12.462Z,23.50
2018-01-31T20:20:39.167Z,21.00
2018-01-31T20:23:11.843Z,18.97
2018-01-31T20:25:38.610Z,23.30
2018-01-31T20:28:06.360Z,18.27
2018-01-31T20:30:34.068Z,19.83
2018-01-31T20:33:01.798Z,24.00
2018-01-31T20:35:28.480Z,26.50
2018-01-31T20:37:56.133Z,23.80
2018-01-31T20:40:23.852Z,26.23
2018-01-31T20:42:51.475Z,24.93
2018-01-31T20:45:19.184Z,35.60
2018-01-31T20:47:46.956Z,35.87
2018-01-31T20:50:15.642Z,39.17
2018-01-31T20:52:44.298Z,38.37
2018-01-31T20:55:11.010Z,39.33
2018-01-31T20:57:38.747Z,35.10
2018-01-31T21:00:18.852Z,29.83
2018-01-31T21:02:46.564Z,31.70
2018-01-31T21:05:13.270Z,30.23
2018-01-31T21:07:40.024Z,32.93
2018-01-31T21:10:08.715Z,31.67
2018-01-31T21:12:35.422Z,29.40
2018-01-31T21:15:04.216Z,35.17
2018-01-31T21:20:17.850Z,35.80
2018-01-31T21:22:44.537Z,26.10
2018-01-31T21:25:11.215Z,24.23
2018-01-31T21:27:38.679Z,22.30
2018-01-31T21:30:09.400Z,24.97
2018-01-31T21:35:22.080Z,23.90
2018-01-31T21:37:50.794Z,26.53
2018-01-31T21:40:18.482Z,24.93
2018-01-31T21:42:47.180Z,25.37
2018-01-31T21:45:13.968Z,21.63
2018-01-31T21:47:41.676Z,24.00
2018-01-31T21:50:09.352Z,22.77
2018-01-31T21:52:36.090Z,20.70
2018-01-31T21:55:03.764Z,21.03
2018-01-31T21:57:36.290Z,22.37
2018-01-31T22:00:04.010Z,22.00
2018-01-31T22:02:31.675Z,22.27
2018-01-31T22:04:58.429Z,22.47
2018-01-31T22:07:25.164Z,19.87
2018-01-31T22:09:51.891Z,19.80
2018-01-31T22:12:20.652Z,20.07
2018-01-31T22:14:48.390Z,21.57
2018-01-31T22:17:16.036Z,22.10
2018-01-31T22:22:30.181Z,18.53
2018-01-31T22:24:57.904Z,19.67
2018-01-31T22:27:24.616Z,15.53
2018-01-31T22:29:53.342Z,17.50
2018-01-31T22:32:21.028Z,13.93
2018-01-31T22:34:48.768Z,14.43
2018-01-31T22:37:18.760Z,17.43
2018-01-31T22:39:46.466Z,18.03
2018-01-31T22:42:14.194Z,15.47
2018-01-31T22:44:40.878Z,16.33
2018-01-31T22:47:09.568Z,14.17
2018-01-31T22:49:37.286Z,15.27
2018-01-31T22:52:05.894Z,15.10
2018-01-31T22:54:32.634Z,15.87
2018-01-31T22:56:59.321Z,15.80
2018-01-31T22:59:27.046Z,16.53
2018-01-31T23:01:53.839Z,16.00
2018-01-31T23:04:21.545Z,16.47
2018-01-31T23:06:53.304Z,16.57
2018-01-31T23:09:22.043Z,16.47
2018-01-31T23:11:49.791Z,15.50
2018-01-31T23:14:22.095Z,15.17
2018-01-31T23:16:50.750Z,15.27
2018-01-31T23:19:17.436Z,13.73
2018-01-31T23:21:45.904Z,14.83
2018-01-31T23:24:12.618Z,13.90
2018-01-31T23:26:41.300Z,12.70
2018-01-31T23:29:22.361Z,12.07
2018-01-31T23:41:40.237Z,15.03
2018-01-31T23:44:07.974Z,11.90
2018-01-31T23:46:34.662Z,13.40
2018-01-31T23:49:02.416Z,13.67
2018-01-31T23:51:30.145Z,14.60
2018-01-31T23:54:02.912Z,14.00
2018-01-31T23:56:30.671Z,14.27
2018-01-31T23:58:58.370Z,14.03
